sensor_id;sensor_type;location;lat;lon;timestamp;P1;durP1;ratioP1;P2;durP2;ratioP2
78322;SDS011;67583;50.616;-3.404;2024-02-14T00:00:07;10.70;;;3.00;;
78322;SDS011;67583;50.616;-3.404;2024-02-14T00:02:40;8.80;;;2.58;;
78322;SDS011;67583;50.616;-3.404;2024-02-14T00:05:06;9.73;;;2.88;;
78322;SDS011;67583;50.616;-3.404;2024-02-14T00:07:32;9.07;;;2.78;;
78322;SDS011;67583;50.616;-3.404;2024-02-14T00:09:57;11.00;;;3.10;;
78322;SDS011;67583;50.616;-3.404;2024-02-14T00:12:25;8.60;;;2.70;;
78322;SDS011;67583;50.616;-3.404;2024-02-14T00:14:51;10.50;;;2.60;;
78322;SDS011;67583;50.616;-3.404;2024-02-14T00:17:16;9.15;;;2.42;;
78322;SDS011;67583;50.616;-3.404;2024-02-14T00:19:42;13.48;;;2.38;;
78322;SDS011;67583;50.616;-3.404;2024-02-14T00:22:07;7.05;;;2.45;;
78322;SDS011;67583;50.616;-3.404;2024-02-14T00:24:32;13.43;;;2.80;;
78322;SDS011;67583;50.616;-3.404;2024-02-14T00:26:59;15.27;;;2.75;;
78322;SDS011;67583;50.616;-3.404;2024-02-14T00:29:25;11.68;;;2.22;;
78322;SDS011;67583;50.616;-3.404;2024-02-14T00:31:51;10.75;;;2.42;;
78322;SDS011;67583;50.616;-3.404;2024-02-14T00:34:17;8.48;;;2.33;;
78322;SDS011;67583;50.616;-3.404;2024-02-14T00:36:42;9.27;;;2.90;;
78322;SDS011;67583;50.616;-3.404;2024-02-14T00:39:07;16.05;;;5.07;;
78322;SDS011;67583;50.616;-3.404;2024-02-14T00:41:34;15.95;;;2.80;;
78322;SDS011;67583;50.616;-3.404;2024-02-14T00:44:00;17.58;;;3.42;;
78322;SDS011;67583;50.616;-3.404;2024-02-14T00:46:27;16.35;;;3.60;;
78322;SDS011;67583;50.616;-3.404;2024-02-14T00:48:52;14.38;;;2.95;;
78322;SDS011;67583;50.616;-3.404;2024-02-14T00:51:19;10.68;;;2.72;;
78322;SDS011;67583;50.616;-3.404;2024-02-14T00:53:45;13.25;;;2.72;;
78322;SDS011;67583;50.616;-3.404;2024-02-14T00:56:10;16.02;;;3.53;;
78322;SDS011;67583;50.616;-3.404;2024-02-14T00:58:36;12.02;;;3.72;;
78322;SDS011;67583;50.616;-3.404;2024-02-14T01:01:02;12.80;;;4.57;;
78322;SDS011;67583;50.616;-3.404;2024-02-14T01:03:27;15.63;;;4.25;;
78322;SDS011;67583;50.616;-3.404;2024-02-14T01:05:53;21.63;;;4.97;;
78322;SDS011;67583;50.616;-3.404;2024-02-14T01:08:20;19.83;;;3.35;;
78322;SDS011;67583;50.616;-3.404;2024-02-14T01:10:46;22.70;;;4.18;;
78322;SDS011;67583;50.616;-3.404;2024-02-14T01:13:12;22.73;;;4.97;;
78322;SDS011;67583;50.616;-3.404;2024-02-14T01:15:37;27.88;;;5.57;;
78322;SDS011;67583;50.616;-3.404;2024-02-14T01:18:03;20.35;;;4.15;;
78322;SDS011;67583;50.616;-3.404;2024-02-14T01:20:28;18.88;;;3.50;;
78322;SDS011;67583;50.616;-3.404;2024-02-14T01:22:54;20.98;;;4.80;;
78322;SDS011;67583;50.616;-3.404;2024-02-14T01:25:19;18.55;;;3.70;;
78322;SDS011;67583;50.616;-3.404;2024-02-14T01:27:45;9.73;;;2.65;;
78322;SDS011;67583;50.616;-3.404;2024-02-14T01:30:11;21.40;;;5.40;;
78322;SDS011;67583;50.616;-3.404;2024-02-14T01:32:37;24.15;;;4.40;;
78322;SDS011;67583;50.616;-3.404;2024-02-14T01:35:02;14.13;;;3.28;;
78322;SDS011;67583;50.616;-3.404;2024-02-14T01:37:29;26.60;;;4.03;;
78322;SDS011;67583;50.616;-3.404;2024-02-14T01:39:54;19.67;;;2.97;;
78322;SDS011;67583;50.616;-3.404;2024-02-14T01:42:20;19.27;;;3.30;;
78322;SDS011;67583;50.616;-3.404;2024-02-14T01:44:45;22.90;;;4.97;;
78322;SDS011;67583;50.616;-3.404;2024-02-14T01:47:10;19.65;;;4.32;;
78322;SDS011;67583;50.616;-3.404;2024-02-14T01:49:37;16.50;;;3.78;;
78322;SDS011;67583;50.616;-3.404;2024-02-14T01:52:03;16.92;;;3.50;;
78322;SDS011;67583;50.616;-3.404;2024-02-14T01:54:30;25.08;;;5.35;;
78322;SDS011;67583;50.616;-3.404;2024-02-14T01:56:56;24.15;;;5.10;;
78322;SDS011;67583;50.616;-3.404;2024-02-14T01:59:21;27.52;;;4.70;;
78322;SDS011;67583;50.616;-3.404;2024-02-14T02:01:47;28.75;;;4.75;;
78322;SDS011;67583;50.616;-3.404;2024-02-14T02:04:12;33.17;;;4.10;;
78322;SDS011;67583;50.616;-3.404;2024-02-14T02:06:39;15.15;;;3.58;;
78322;SDS011;67583;50.616;-3.404;2024-02-14T02:09:06;14.52;;;3.35;;
78322;SDS011;67583;50.616;-3.404;2024-02-14T02:11:42;23.50;;;4.30;;
78322;SDS011;67583;50.616;-3.404;2024-02-14T02:14:10;24.67;;;4.05;;
78322;SDS011;67583;50.616;-3.404;2024-02-14T02:16:37;19.02;;;4.40;;
78322;SDS011;67583;50.616;-3.404;2024-02-14T02:19:03;9.35;;;2.58;;
78322;SDS011;67583;50.616;-3.404;2024-02-14T02:21:30;18.77;;;4.05;;
78322;SDS011;67583;50.616;-3.404;2024-02-14T02:23:55;15.15;;;4.55;;
78322;SDS011;67583;50.616;-3.404;2024-02-14T02:26:20;13.65;;;3.22;;
78322;SDS011;67583;50.616;-3.404;2024-02-14T02:28:46;7.88;;;2.67;;
78322;SDS011;67583;50.616;-3.404;2024-02-14T02:31:11;22.40;;;2.55;;
78322;SDS011;67583;50.616;-3.404;2024-02-14T02:33:37;15.57;;;2.45;;
78322;SDS011;67583;50.616;-3.404;2024-02-14T02:36:02;7.63;;;2.17;;
78322;SDS011;67583;50.616;-3.404;2024-02-14T02:38:28;17.95;;;3.88;;
78322;SDS011;67583;50.616;-3.404;2024-02-14T02:40:54;13.40;;;3.33;;
78322;SDS011;67583;50.616;-3.404;2024-02-14T02:43:19;12.60;;;2.22;;
78322;SDS011;67583;50.616;-3.404;2024-02-14T02:45:45;13.40;;;2.72;;
78322;SDS011;67583;50.616;-3.404;2024-02-14T02:48:11;10.30;;;2.40;;
78322;SDS011;67583;50.616;-3.404;2024-02-14T02:50:36;13.02;;;2.55;;
78322;SDS011;67583;50.616;-3.404;2024-02-14T02:53:02;8.30;;;1.98;;
78322;SDS011;67583;50.616;-3.404;2024-02-14T02:55:27;9.48;;;1.80;;
78322;SDS011;67583;50.616;-3.404;2024-02-14T02:57:53;5.97;;;1.80;;
78322;SDS011;67583;50.616;-3.404;2024-02-14T03:00:18;3.58;;;1.40;;
78322;SDS011;67583;50.616;-3.404;2024-02-14T03:02:46;4.82;;;1.27;;
78322;SDS011;67583;50.616;-3.404;2024-02-14T03:05:11;9.02;;;1.88;;
78322;SDS011;67583;50.616;-3.404;2024-02-14T03:07:43;3.65;;;1.23;;
78322;SDS011;67583;50.616;-3.404;2024-02-14T03:10:10;2.85;;;1.30;;
78322;SDS011;67583;50.616;-3.404;2024-02-14T03:12:38;6.43;;;1.85;;
78322;SDS011;67583;50.616;-3.404;2024-02-14T03:15:04;6.03;;;1.42;;
78322;SDS011;67583;50.616;-3.404;2024-02-14T03:17:30;7.63;;;1.67;;
78322;SDS011;67583;50.616;-3.404;2024-02-14T03:19:56;2.47;;;1.50;;
78322;SDS011;67583;50.616;-3.404;2024-02-14T03:22:22;10.23;;;1.77;;
78322;SDS011;67583;50.616;-3.404;2024-02-14T03:24:48;6.25;;;1.65;;
78322;SDS011;67583;50.616;-3.404;2024-02-14T03:27:13;4.00;;;1.50;;
78322;SDS011;67583;50.616;-3.404;2024-02-14T03:29:39;3.35;;;1.45;;
78322;SDS011;67583;50.616;-3.404;2024-02-14T03:32:05;7.63;;;1.50;;
78322;SDS011;67583;50.616;-3.404;2024-02-14T03:34:31;5.30;;;1.83;;
78322;SDS011;67583;50.616;-3.404;2024-02-14T03:36:59;5.72;;;1.83;;
78322;SDS011;67583;50.616;-3.404;2024-02-14T03:39:25;9.82;;;1.67;;
78322;SDS011;67583;50.616;-3.404;2024-02-14T03:41:51;5.88;;;1.55;;
78322;SDS011;67583;50.616;-3.404;2024-02-14T03:44:17;9.88;;;1.80;;
78322;SDS011;67583;50.616;-3.404;2024-02-14T03:46:43;6.53;;;1.40;;
78322;SDS011;67583;50.616;-3.404;2024-02-14T03:49:09;11.63;;;2.13;;
78322;SDS011;67583;50.616;-3.404;2024-02-14T03:51:34;11.23;;;2.30;;
78322;SDS011;67583;50.616;-3.404;2024-02-14T03:53:59;6.60;;;2.85;;
78322;SDS011;67583;50.616;-3.404;2024-02-14T03:56:25;8.43;;;1.85;;
78322;SDS011;67583;50.616;-3.404;2024-02-14T03:58:51;10.85;;;3.13;;
78322;SDS011;67583;50.616;-3.404;2024-02-14T04:01:16;11.63;;;2.03;;
78322;SDS011;67583;50.616;-3.404;2024-02-14T04:03:42;8.70;;;2.75;;
78322;SDS011;67583;50.616;-3.404;2024-02-14T04:06:08;6.68;;;2.70;;
78322;SDS011;67583;50.616;-3.404;2024-02-14T04:08:33;8.15;;;1.60;;
78322;SDS011;67583;50.616;-3.404;2024-02-14T04:11:00;11.43;;;2.30;;
78322;SDS011;67583;50.616;-3.404;2024-02-14T04:13:26;10.00;;;3.38;;
78322;SDS011;67583;50.616;-3.404;2024-02-14T04:15:52;7.18;;;1.80;;
78322;SDS011;67583;50.616;-3.404;2024-02-14T04:18:18;6.88;;;2.13;;
78322;SDS011;67583;50.616;-3.404;2024-02-14T04:20:43;6.53;;;1.77;;
78322;SDS011;67583;50.616;-3.404;2024-02-14T04:23:09;9.77;;;2.53;;
78322;SDS011;67583;50.616;-3.404;2024-02-14T04:25:35;6.50;;;1.80;;
78322;SDS011;67583;50.616;-3.404;2024-02-14T04:28:02;5.10;;;1.70;;
78322;SDS011;67583;50.616;-3.404;2024-02-14T04:30:28;7.50;;;2.17;;
78322;SDS011;67583;50.616;-3.404;2024-02-14T04:32:53;7.90;;;2.10;;
78322;SDS011;67583;50.616;-3.404;2024-02-14T04:35:22;5.97;;;1.85;;
78322;SDS011;67583;50.616;-3.404;2024-02-14T04:37:47;8.05;;;2.17;;
78322;SDS011;67583;50.616;-3.404;2024-02-14T04:40:14;9.48;;;1.88;;
78322;SDS011;67583;50.616;-3.404;2024-02-14T04:42:40;10.85;;;3.08;;
78322;SDS011;67583;50.616;-3.404;2024-02-14T04:45:06;9.85;;;2.25;;
78322;SDS011;67583;50.616;-3.404;2024-02-14T04:47:32;5.05;;;2.28;;
78322;SDS011;67583;50.616;-3.404;2024-02-14T04:49:57;5.63;;;2.38;;
78322;SDS011;67583;50.616;-3.404;2024-02-14T04:52:23;15.48;;;4.65;;
78322;SDS011;67583;50.616;-3.404;2024-02-14T04:54:49;11.80;;;2.20;;
78322;SDS011;67583;50.616;-3.404;2024-02-14T04:57:15;10.60;;;3.35;;
78322;SDS011;67583;50.616;-3.404;2024-02-14T04:59:40;10.15;;;2.08;;
78322;SDS011;67583;50.616;-3.404;2024-02-14T05:02:06;15.13;;;2.50;;
78322;SDS011;67583;50.616;-3.404;2024-02-14T05:04:32;11.77;;;2.13;;
78322;SDS011;67583;50.616;-3.404;2024-02-14T05:06:57;10.60;;;2.42;;
78322;SDS011;67583;50.616;-3.404;2024-02-14T05:09:22;10.50;;;2.40;;
78322;SDS011;67583;50.616;-3.404;2024-02-14T05:11:48;9.80;;;1.85;;
78322;SDS011;67583;50.616;-3.404;2024-02-14T05:14:14;6.93;;;1.80;;
78322;SDS011;67583;50.616;-3.404;2024-02-14T05:16:41;7.07;;;1.83;;
78322;SDS011;67583;50.616;-3.404;2024-02-14T05:19:06;9.93;;;1.85;;
78322;SDS011;67583;50.616;-3.404;2024-02-14T05:21:31;5.15;;;1.40;;
78322;SDS011;67583;50.616;-3.404;2024-02-14T05:23:57;6.25;;;1.65;;
78322;SDS011;67583;50.616;-3.404;2024-02-14T05:26:23;9.07;;;1.38;;
78322;SDS011;67583;50.616;-3.404;2024-02-14T05:28:48;4.65;;;1.33;;
78322;SDS011;67583;50.616;-3.404;2024-02-14T05:31:14;7.05;;;2.60;;
78322;SDS011;67583;50.616;-3.404;2024-02-14T05:33:42;6.60;;;1.40;;
78322;SDS011;67583;50.616;-3.404;2024-02-14T05:36:08;10.38;;;1.88;;
78322;SDS011;67583;50.616;-3.404;2024-02-14T05:38:34;9.25;;;1.52;;
78322;SDS011;67583;50.616;-3.404;2024-02-14T05:40:59;7.72;;;1.60;;
78322;SDS011;67583;50.616;-3.404;2024-02-14T05:43:25;8.60;;;1.95;;
78322;SDS011;67583;50.616;-3.404;2024-02-14T05:45:51;10.70;;;2.40;;
78322;SDS011;67583;50.616;-3.404;2024-02-14T05:48:16;9.15;;;1.80;;
78322;SDS011;67583;50.616;-3.404;2024-02-14T05:50:41;3.42;;;1.50;;
78322;SDS011;67583;50.616;-3.404;2024-02-14T05:53:07;6.60;;;1.70;;
78322;SDS011;67583;50.616;-3.404;2024-02-14T05:55:32;4.18;;;1.85;;
78322;SDS011;67583;50.616;-3.404;2024-02-14T05:57:58;7.53;;;1.92;;
78322;SDS011;67583;50.616;-3.404;2024-02-14T06:00:24;14.20;;;2.33;;
78322;SDS011;67583;50.616;-3.404;2024-02-14T06:02:50;6.72;;;1.90;;
78322;SDS011;67583;50.616;-3.404;2024-02-14T06:05:15;5.95;;;1.90;;
78322;SDS011;67583;50.616;-3.404;2024-02-14T06:07:41;10.07;;;2.05;;
78322;SDS011;67583;50.616;-3.404;2024-02-14T06:10:07;8.77;;;2.47;;
78322;SDS011;67583;50.616;-3.404;2024-02-14T06:12:34;9.88;;;2.58;;
78322;SDS011;67583;50.616;-3.404;2024-02-14T06:15:03;11.18;;;2.60;;
78322;SDS011;67583;50.616;-3.404;2024-02-14T06:17:28;8.23;;;2.05;;
78322;SDS011;67583;50.616;-3.404;2024-02-14T06:19:54;10.02;;;1.80;;
78322;SDS011;67583;50.616;-3.404;2024-02-14T06:22:20;5.93;;;1.67;;
78322;SDS011;67583;50.616;-3.404;2024-02-14T06:24:46;14.77;;;3.33;;
78322;SDS011;67583;50.616;-3.404;2024-02-14T06:27:13;13.98;;;2.40;;
78322;SDS011;67583;50.616;-3.404;2024-02-14T06:29:41;10.63;;;2.03;;
78322;SDS011;67583;50.616;-3.404;2024-02-14T06:32:07;4.63;;;1.50;;
78322;SDS011;67583;50.616;-3.404;2024-02-14T06:34:33;4.47;;;1.25;;
78322;SDS011;67583;50.616;-3.404;2024-02-14T06:36:58;4.40;;;1.33;;
78322;SDS011;67583;50.616;-3.404;2024-02-14T06:39:23;4.88;;;1.50;;
78322;SDS011;67583;50.616;-3.404;2024-02-14T06:41:49;4.13;;;0.85;;
78322;SDS011;67583;50.616;-3.404;2024-02-14T06:44:14;2.35;;;1.13;;
78322;SDS011;67583;50.616;-3.404;2024-02-14T06:46:39;2.45;;;1.13;;
78322;SDS011;67583;50.616;-3.404;2024-02-14T06:49:06;4.03;;;1.20;;
78322;SDS011;67583;50.616;-3.404;2024-02-14T06:51:32;3.03;;;1.20;;
78322;SDS011;67583;50.616;-3.404;2024-02-14T06:53:58;3.33;;;1.10;;
78322;SDS011;67583;50.616;-3.404;2024-02-14T06:56:24;7.63;;;1.48;;
78322;SDS011;67583;50.616;-3.404;2024-02-14T06:58:49;4.75;;;1.40;;
78322;SDS011;67583;50.616;-3.404;2024-02-14T07:01:18;2.33;;;1.05;;
78322;SDS011;67583;50.616;-3.404;2024-02-14T07:03:50;3.80;;;1.38;;
78322;SDS011;67583;50.616;-3.404;2024-02-14T07:06:16;4.60;;;1.15;;
78322;SDS011;67583;50.616;-3.404;2024-02-14T07:08:42;5.68;;;1.33;;
78322;SDS011;67583;50.616;-3.404;2024-02-14T07:11:08;3.72;;;1.17;;
78322;SDS011;67583;50.616;-3.404;2024-02-14T07:13:33;6.43;;;1.30;;
78322;SDS011;67583;50.616;-3.404;2024-02-14T07:15:59;3.60;;;1.20;;
78322;SDS011;67583;50.616;-3.404;2024-02-14T07:18:25;3.28;;;1.00;;
78322;SDS011;67583;50.616;-3.404;2024-02-14T07:20:50;3.78;;;1.17;;
78322;SDS011;67583;50.616;-3.404;2024-02-14T07:23:15;5.15;;;1.67;;
78322;SDS011;67583;50.616;-3.404;2024-02-14T07:25:41;2.95;;;1.42;;
78322;SDS011;67583;50.616;-3.404;2024-02-14T07:28:07;3.35;;;1.98;;
78322;SDS011;67583;50.616;-3.404;2024-02-14T07:30:32;7.18;;;1.98;;
78322;SDS011;67583;50.616;-3.404;2024-02-14T07:32:58;4.47;;;1.52;;
78322;SDS011;67583;50.616;-3.404;2024-02-14T07:35:23;6.00;;;1.88;;
78322;SDS011;67583;50.616;-3.404;2024-02-14T07:37:49;4.38;;;1.48;;
78322;SDS011;67583;50.616;-3.404;2024-02-14T07:40:14;3.28;;;1.13;;
78322;SDS011;67583;50.616;-3.404;2024-02-14T07:42:40;6.70;;;1.13;;
78322;SDS011;67583;50.616;-3.404;2024-02-14T07:45:05;4.47;;;1.33;;
78322;SDS011;67583;50.616;-3.404;2024-02-14T07:47:31;4.63;;;1.33;;
78322;SDS011;67583;50.616;-3.404;2024-02-14T07:49:57;6.80;;;1.77;;
78322;SDS011;67583;50.616;-3.404;2024-02-14T07:52:22;7.80;;;1.83;;
78322;SDS011;67583;50.616;-3.404;2024-02-14T07:54:51;6.85;;;1.65;;
78322;SDS011;67583;50.616;-3.404;2024-02-14T07:57:22;7.75;;;1.98;;
78322;SDS011;67583;50.616;-3.404;2024-02-14T07:59:49;7.88;;;1.80;;
78322;SDS011;67583;50.616;-3.404;2024-02-14T08:02:15;3.22;;;1.25;;
78322;SDS011;67583;50.616;-3.404;2024-02-14T08:04:41;8.23;;;1.45;;
78322;SDS011;67583;50.616;-3.404;2024-02-14T08:07:06;3.80;;;1.15;;
78322;SDS011;67583;50.616;-3.404;2024-02-14T08:09:31;2.47;;;1.40;;
78322;SDS011;67583;50.616;-3.404;2024-02-14T08:11:57;8.93;;;1.52;;
78322;SDS011;67583;50.616;-3.404;2024-02-14T08:14:22;3.33;;;1.55;;
78322;SDS011;67583;50.616;-3.404;2024-02-14T08:16:48;5.25;;;2.15;;
78322;SDS011;67583;50.616;-3.404;2024-02-14T08:19:13;3.83;;;1.50;;
78322;SDS011;67583;50.616;-3.404;2024-02-14T08:21:39;3.75;;;1.60;;
78322;SDS011;67583;50.616;-3.404;2024-02-14T08:24:04;13.95;;;2.28;;
78322;SDS011;67583;50.616;-3.404;2024-02-14T08:26:30;4.75;;;1.58;;
78322;SDS011;67583;50.616;-3.404;2024-02-14T08:28:56;4.10;;;1.73;;
78322;SDS011;67583;50.616;-3.404;2024-02-14T08:31:23;9.57;;;2.10;;
78322;SDS011;67583;50.616;-3.404;2024-02-14T08:33:48;5.50;;;1.98;;
78322;SDS011;67583;50.616;-3.404;2024-02-14T08:36:14;6.57;;;1.85;;
78322;SDS011;67583;50.616;-3.404;2024-02-14T08:38:39;5.65;;;2.25;;
78322;SDS011;67583;50.616;-3.404;2024-02-14T08:41:04;12.38;;;2.33;;
78322;SDS011;67583;50.616;-3.404;2024-02-14T08:43:31;5.03;;;1.65;;
78322;SDS011;67583;50.616;-3.404;2024-02-14T08:45:56;5.63;;;1.88;;
78322;SDS011;67583;50.616;-3.404;2024-02-14T08:48:22;11.40;;;2.83;;
78322;SDS011;67583;50.616;-3.404;2024-02-14T08:50:48;3.70;;;1.80;;
78322;SDS011;67583;50.616;-3.404;2024-02-14T08:53:14;8.88;;;2.20;;
78322;SDS011;67583;50.616;-3.404;2024-02-14T08:55:40;10.15;;;2.03;;
78322;SDS011;67583;50.616;-3.404;2024-02-14T08:58:06;10.93;;;3.15;;
78322;SDS011;67583;50.616;-3.404;2024-02-14T09:00:31;6.28;;;1.58;;
78322;SDS011;67583;50.616;-3.404;2024-02-14T09:03:00;7.85;;;2.50;;
78322;SDS011;67583;50.616;-3.404;2024-02-14T09:05:25;12.60;;;4.00;;
78322;SDS011;67583;50.616;-3.404;2024-02-14T09:07:53;36.38;;;20.42;;
78322;SDS011;67583;50.616;-3.404;2024-02-14T09:10:18;34.25;;;13.85;;
78322;SDS011;67583;50.616;-3.404;2024-02-14T09:12:46;18.67;;;5.68;;
78322;SDS011;67583;50.616;-3.404;2024-02-14T09:15:12;8.73;;;2.85;;
78322;SDS011;67583;50.616;-3.404;2024-02-14T09:17:38;49.22;;;37.53;;
78322;SDS011;67583;50.616;-3.404;2024-02-14T09:20:05;22.38;;;11.77;;
78322;SDS011;67583;50.616;-3.404;2024-02-14T09:22:37;10.02;;;2.75;;
78322;SDS011;67583;50.616;-3.404;2024-02-14T09:25:03;6.30;;;2.65;;
78322;SDS011;67583;50.616;-3.404;2024-02-14T09:27:29;8.18;;;2.40;;
78322;SDS011;67583;50.616;-3.404;2024-02-14T09:29:55;10.73;;;3.03;;
78322;SDS011;67583;50.616;-3.404;2024-02-14T09:32:20;25.42;;;23.20;;
78322;SDS011;67583;50.616;-3.404;2024-02-14T09:34:46;9.13;;;2.72;;
78322;SDS011;67583;50.616;-3.404;2024-02-14T09:37:11;15.73;;;2.13;;
78322;SDS011;67583;50.616;-3.404;2024-02-14T09:39:37;6.47;;;1.60;;
78322;SDS011;67583;50.616;-3.404;2024-02-14T09:42:09;4.32;;;1.80;;
78322;SDS011;67583;50.616;-3.404;2024-02-14T09:44:36;8.30;;;2.42;;
78322;SDS011;67583;50.616;-3.404;2024-02-14T09:47:03;6.15;;;2.10;;
78322;SDS011;67583;50.616;-3.404;2024-02-14T09:49:30;7.47;;;2.30;;
78322;SDS011;67583;50.616;-3.404;2024-02-14T09:51:56;3.95;;;1.85;;
78322;SDS011;67583;50.616;-3.404;2024-02-14T09:54:23;5.95;;;2.22;;
78322;SDS011;67583;50.616;-3.404;2024-02-14T09:56:50;6.05;;;2.15;;
78322;SDS011;67583;50.616;-3.404;2024-02-14T09:59:18;5.95;;;1.92;;
78322;SDS011;67583;50.616;-3.404;2024-02-14T10:01:44;5.72;;;2.00;;
78322;SDS011;67583;50.616;-3.404;2024-02-14T10:04:11;6.60;;;2.20;;
78322;SDS011;67583;50.616;-3.404;2024-02-14T10:06:36;6.18;;;1.40;;
78322;SDS011;67583;50.616;-3.404;2024-02-14T10:09:02;5.32;;;1.85;;
78322;SDS011;67583;50.616;-3.404;2024-02-14T10:11:27;4.05;;;1.33;;
78322;SDS011;67583;50.616;-3.404;2024-02-14T10:13:53;4.82;;;1.77;;
78322;SDS011;67583;50.616;-3.404;2024-02-14T10:16:22;4.38;;;1.23;;
78322;SDS011;67583;50.616;-3.404;2024-02-14T10:18:47;8.35;;;2.50;;
78322;SDS011;67583;50.616;-3.404;2024-02-14T10:21:15;7.30;;;1.55;;
78322;SDS011;67583;50.616;-3.404;2024-02-14T10:26:13;3.92;;;1.50;;
78322;SDS011;67583;50.616;-3.404;2024-02-14T10:28:42;3.35;;;1.65;;
78322;SDS011;67583;50.616;-3.404;2024-02-14T10:31:09;6.00;;;1.95;;
78322;SDS011;67583;50.616;-3.404;2024-02-14T10:33:35;11.43;;;3.33;;
78322;SDS011;67583;50.616;-3.404;2024-02-14T10:36:00;5.43;;;1.70;;
78322;SDS011;67583;50.616;-3.404;2024-02-14T10:38:28;6.43;;;1.60;;
78322;SDS011;67583;50.616;-3.404;2024-02-14T10:40:56;4.53;;;1.60;;
78322;SDS011;67583;50.616;-3.404;2024-02-14T10:43:24;3.47;;;1.90;;
78322;SDS011;67583;50.616;-3.404;2024-02-14T10:45:49;4.63;;;1.90;;
78322;SDS011;67583;50.616;-3.404;2024-02-14T10:48:17;9.57;;;1.90;;
78322;SDS011;67583;50.616;-3.404;2024-02-14T10:50:43;8.90;;;3.50;;
78322;SDS011;67583;50.616;-3.404;2024-02-14T10:53:13;7.43;;;3.10;;
78322;SDS011;67583;50.616;-3.404;2024-02-14T10:55:41;5.78;;;1.80;;
78322;SDS011;67583;50.616;-3.404;2024-02-14T10:58:10;6.55;;;1.67;;
78322;SDS011;67583;50.616;-3.404;2024-02-14T11:00:38;7.05;;;2.40;;
78322;SDS011;67583;50.616;-3.404;2024-02-14T11:03:04;7.35;;;2.60;;
78322;SDS011;67583;50.616;-3.404;2024-02-14T11:05:30;5.47;;;2.10;;
78322;SDS011;67583;50.616;-3.404;2024-02-14T11:07:56;5.00;;;1.70;;
78322;SDS011;67583;50.616;-3.404;2024-02-14T11:10:22;11.25;;;2.10;;
78322;SDS011;67583;50.616;-3.404;2024-02-14T11:12:48;11.15;;;2.92;;
78322;SDS011;67583;50.616;-3.404;2024-02-14T11:15:16;8.77;;;1.90;;
78322;SDS011;67583;50.616;-3.404;2024-02-14T11:17:42;9.30;;;2.25;;
78322;SDS011;67583;50.616;-3.404;2024-02-14T11:23:04;8.27;;;2.55;;
78322;SDS011;67583;50.616;-3.404;2024-02-14T11:25:36;6.70;;;1.95;;
78322;SDS011;67583;50.616;-3.404;2024-02-14T11:31:00;11.63;;;3.25;;
78322;SDS011;67583;50.616;-3.404;2024-02-14T11:33:31;12.20;;;2.55;;
78322;SDS011;67583;50.616;-3.404;2024-02-14T11:36:01;9.77;;;2.28;;
78322;SDS011;67583;50.616;-3.404;2024-02-14T11:38:35;9.27;;;2.83;;
78322;SDS011;67583;50.616;-3.404;2024-02-14T11:41:01;11.93;;;2.55;;
78322;SDS011;67583;50.616;-3.404;2024-02-14T11:43:31;8.82;;;2.30;;
78322;SDS011;67583;50.616;-3.404;2024-02-14T11:45:59;14.90;;;3.33;;
78322;SDS011;67583;50.616;-3.404;2024-02-14T11:48:25;10.70;;;2.55;;
78322;SDS011;67583;50.616;-3.404;2024-02-14T11:50:51;9.15;;;2.42;;
78322;SDS011;67583;50.616;-3.404;2024-02-14T11:53:18;5.18;;;2.17;;
78322;SDS011;67583;50.616;-3.404;2024-02-14T11:55:44;13.55;;;2.53;;
78322;SDS011;67583;50.616;-3.404;2024-02-14T11:58:14;14.18;;;3.42;;
78322;SDS011;67583;50.616;-3.404;2024-02-14T12:00:41;6.82;;;2.08;;
78322;SDS011;67583;50.616;-3.404;2024-02-14T12:03:19;5.05;;;1.70;;
78322;SDS011;67583;50.616;-3.404;2024-02-14T12:05:51;11.27;;;2.80;;
78322;SDS011;67583;50.616;-3.404;2024-02-14T12:08:17;10.20;;;2.30;;
78322;SDS011;67583;50.616;-3.404;2024-02-14T12:10:45;7.60;;;1.98;;
78322;SDS011;67583;50.616;-3.404;2024-02-14T12:13:15;6.75;;;2.13;;
78322;SDS011;67583;50.616;-3.404;2024-02-14T12:15:46;11.57;;;2.88;;
78322;SDS011;67583;50.616;-3.404;2024-02-14T12:18:12;16.45;;;4.18;;
78322;SDS011;67583;50.616;-3.404;2024-02-14T12:20:39;10.38;;;2.88;;
78322;SDS011;67583;50.616;-3.404;2024-02-14T12:23:05;10.02;;;2.80;;
78322;SDS011;67583;50.616;-3.404;2024-02-14T12:25:30;9.60;;;2.65;;
78322;SDS011;67583;50.616;-3.404;2024-02-14T12:27:56;15.68;;;2.70;;
78322;SDS011;67583;50.616;-3.404;2024-02-14T12:30:23;11.55;;;2.08;;
78322;SDS011;67583;50.616;-3.404;2024-02-14T12:33:25;10.98;;;2.47;;
78322;SDS011;67583;50.616;-3.404;2024-02-14T12:35:52;11.88;;;3.42;;
78322;SDS011;67583;50.616;-3.404;2024-02-14T12:38:19;8.57;;;5.10;;
78322;SDS011;67583;50.616;-3.404;2024-02-14T12:40:45;11.18;;;3.03;;
78322;SDS011;67583;50.616;-3.404;2024-02-14T12:43:11;13.23;;;3.67;;
78322;SDS011;67583;50.616;-3.404;2024-02-14T12:45:38;13.75;;;2.58;;
78322;SDS011;67583;50.616;-3.404;2024-02-14T12:48:04;25.55;;;3.55;;
78322;SDS011;67583;50.616;-3.404;2024-02-14T12:50:38;10.27;;;2.72;;
78322;SDS011;67583;50.616;-3.404;2024-02-14T12:53:04;12.65;;;3.20;;
78322;SDS011;67583;50.616;-3.404;2024-02-14T12:55:30;10.43;;;2.95;;
78322;SDS011;67583;50.616;-3.404;2024-02-14T12:57:56;7.88;;;2.70;;
78322;SDS011;67583;50.616;-3.404;2024-02-14T13:00:22;13.95;;;2.97;;
78322;SDS011;67583;50.616;-3.404;2024-02-14T13:02:48;15.43;;;7.82;;
78322;SDS011;67583;50.616;-3.404;2024-02-14T13:05:14;9.57;;;2.55;;
78322;SDS011;67583;50.616;-3.404;2024-02-14T13:07:41;7.22;;;2.58;;
78322;SDS011;67583;50.616;-3.404;2024-02-14T13:10:06;13.07;;;2.45;;
78322;SDS011;67583;50.616;-3.404;2024-02-14T13:12:34;14.30;;;2.35;;
78322;SDS011;67583;50.616;-3.404;2024-02-14T13:15:00;4.20;;;1.73;;
78322;SDS011;67583;50.616;-3.404;2024-02-14T13:17:28;8.52;;;2.80;;
78322;SDS011;67583;50.616;-3.404;2024-02-14T13:19:54;8.88;;;2.42;;
78322;SDS011;67583;50.616;-3.404;2024-02-14T13:22:20;8.85;;;1.83;;
78322;SDS011;67583;50.616;-3.404;2024-02-14T13:24:45;6.95;;;1.80;;
78322;SDS011;67583;50.616;-3.404;2024-02-14T13:27:11;4.40;;;1.92;;
78322;SDS011;67583;50.616;-3.404;2024-02-14T13:29:36;4.15;;;1.52;;
78322;SDS011;67583;50.616;-3.404;2024-02-14T13:32:01;6.28;;;1.63;;
78322;SDS011;67583;50.616;-3.404;2024-02-14T13:34:27;3.15;;;1.42;;
78322;SDS011;67583;50.616;-3.404;2024-02-14T13:36:53;7.78;;;2.03;;
78322;SDS011;67583;50.616;-3.404;2024-02-14T13:39:19;9.98;;;4.15;;
78322;SDS011;67583;50.616;-3.404;2024-02-14T13:41:45;4.70;;;1.42;;
78322;SDS011;67583;50.616;-3.404;2024-02-14T13:44:10;8.68;;;2.17;;
78322;SDS011;67583;50.616;-3.404;2024-02-14T13:46:36;8.93;;;1.90;;
78322;SDS011;67583;50.616;-3.404;2024-02-14T13:49:02;11.65;;;2.45;;
78322;SDS011;67583;50.616;-3.404;2024-02-14T13:51:27;6.10;;;1.65;;
78322;SDS011;67583;50.616;-3.404;2024-02-14T13:53:53;5.85;;;1.50;;
78322;SDS011;67583;50.616;-3.404;2024-02-14T13:56:18;8.95;;;2.42;;
78322;SDS011;67583;50.616;-3.404;2024-02-14T13:58:47;4.72;;;1.83;;
78322;SDS011;67583;50.616;-3.404;2024-02-14T14:01:14;7.45;;;1.70;;
78322;SDS011;67583;50.616;-3.404;2024-02-14T14:03:40;4.28;;;1.60;;
78322;SDS011;67583;50.616;-3.404;2024-02-14T14:06:06;5.50;;;1.83;;
78322;SDS011;67583;50.616;-3.404;2024-02-14T14:08:33;5.07;;;1.55;;
78322;SDS011;67583;50.616;-3.404;2024-02-14T14:10:59;6.40;;;2.53;;
78322;SDS011;67583;50.616;-3.404;2024-02-14T14:13:24;5.85;;;1.85;;
78322;SDS011;67583;50.616;-3.404;2024-02-14T14:15:54;5.10;;;1.60;;
78322;SDS011;67583;50.616;-3.404;2024-02-14T14:18:22;7.57;;;1.63;;
78322;SDS011;67583;50.616;-3.404;2024-02-14T14:20:48;5.55;;;1.85;;
78322;SDS011;67583;50.616;-3.404;2024-02-14T14:23:14;6.90;;;2.00;;
78322;SDS011;67583;50.616;-3.404;2024-02-14T14:25:39;10.75;;;2.00;;
78322;SDS011;67583;50.616;-3.404;2024-02-14T14:28:05;8.63;;;1.83;;
78322;SDS011;67583;50.616;-3.404;2024-02-14T14:30:31;6.93;;;1.65;;